sensor_id;sensor_type;location;lat;lon;timestamp;temperature;humidity
51559;DHT22;61650;48.882;2.092;2022-10-20T00:02:08;13.90;96.40
51559;DHT22;61650;48.882;2.092;2022-10-20T00:04:33;14.00;96.60
51559;DHT22;61650;48.882;2.092;2022-10-20T00:06:59;14.00;96.20
51559;DHT22;61650;48.882;2.092;2022-10-20T00:09:24;14.00;96.10
51559;DHT22;61650;48.882;2.092;2022-10-20T00:11:50;14.00;96.10
51559;DHT22;61650;48.882;2.092;2022-10-20T00:14:16;14.00;95.60
51559;DHT22;61650;48.882;2.092;2022-10-20T00:16:41;13.90;95.70
51559;DHT22;61650;48.882;2.092;2022-10-20T00:19:07;13.90;96.10
51559;DHT22;61650;48.882;2.092;2022-10-20T00:21:32;13.80;96.10
51559;DHT22;61650;48.882;2.092;2022-10-20T00:23:59;13.90;96.60
51559;DHT22;61650;48.882;2.092;2022-10-20T00:26:26;13.90;96.60
51559;DHT22;61650;48.882;2.092;2022-10-20T00:28:53;14.00;96.90
51559;DHT22;61650;48.882;2.092;2022-10-20T00:31:21;14.00;96.30
51559;DHT22;61650;48.882;2.092;2022-10-20T00:33:46;14.00;96.00
51559;DHT22;61650;48.882;2.092;2022-10-20T00:36:14;14.00;96.30
51559;DHT22;61650;48.882;2.092;2022-10-20T00:38:40;14.00;96.20
51559;DHT22;61650;48.882;2.092;2022-10-20T00:41:06;14.00;95.80
51559;DHT22;61650;48.882;2.092;2022-10-20T00:43:43;14.00;96.20
51559;DHT22;61650;48.882;2.092;2022-10-20T00:46:11;14.10;96.50
51559;DHT22;61650;48.882;2.092;2022-10-20T00:48:38;14.00;95.70
51559;DHT22;61650;48.882;2.092;2022-10-20T00:51:04;14.00;95.70
51559;DHT22;61650;48.882;2.092;2022-10-20T00:53:29;14.00;96.30
51559;DHT22;61650;48.882;2.092;2022-10-20T00:55:57;14.00;96.10
51559;DHT22;61650;48.882;2.092;2022-10-20T00:58:24;14.00;95.90
51559;DHT22;61650;48.882;2.092;2022-10-20T01:00:54;14.00;95.90
51559;DHT22;61650;48.882;2.092;2022-10-20T01:03:29;14.00;95.90
51559;DHT22;61650;48.882;2.092;2022-10-20T01:05:58;14.10;96.50
51559;DHT22;61650;48.882;2.092;2022-10-20T01:08:24;14.10;96.00
51559;DHT22;61650;48.882;2.092;2022-10-20T01:11:25;14.00;95.50
51559;DHT22;61650;48.882;2.092;2022-10-20T01:16:55;14.00;95.70
51559;DHT22;61650;48.882;2.092;2022-10-20T01:19:50;14.00;95.90
51559;DHT22;61650;48.882;2.092;2022-10-20T01:22:48;13.80;95.60
51559;DHT22;61650;48.882;2.092;2022-10-20T01:28:32;13.90;96.90
51559;DHT22;61650;48.882;2.092;2022-10-20T01:31:03;13.90;96.30
51559;DHT22;61650;48.882;2.092;2022-10-20T01:33:38;13.90;96.10
51559;DHT22;61650;48.882;2.092;2022-10-20T01:36:26;13.90;96.20
51559;DHT22;61650;48.882;2.092;2022-10-20T01:39:03;13.90;96.10
51559;DHT22;61650;48.882;2.092;2022-10-20T01:44:09;13.80;95.70
51559;DHT22;61650;48.882;2.092;2022-10-20T01:46:37;13.80;96.00
51559;DHT22;61650;48.882;2.092;2022-10-20T01:49:04;13.80;96.30
51559;DHT22;61650;48.882;2.092;2022-10-20T01:51:31;13.80;96.30
51559;DHT22;61650;48.882;2.092;2022-10-20T01:53:57;13.80;96.30
51559;DHT22;61650;48.882;2.092;2022-10-20T01:56:34;13.90;96.50
51559;DHT22;61650;48.882;2.092;2022-10-20T01:59:28;14.00;96.90
51559;DHT22;61650;48.882;2.092;2022-10-20T02:07:26;14.60;97.10
51559;DHT22;61650;48.882;2.092;2022-10-20T02:10:28;15.00;98.10
51559;DHT22;61650;48.882;2.092;2022-10-20T02:12:49;15.20;97.10
51559;DHT22;61650;48.882;2.092;2022-10-20T02:15:19;15.50;96.20
51559;DHT22;61650;48.882;2.092;2022-10-20T02:17:48;15.70;95.10
51559;DHT22;61650;48.882;2.092;2022-10-20T02:20:16;15.80;94.60
51559;DHT22;61650;48.882;2.092;2022-10-20T02:22:42;16.00;94.10
51559;DHT22;61650;48.882;2.092;2022-10-20T02:25:12;16.20;92.80
51559;DHT22;61650;48.882;2.092;2022-10-20T02:27:41;16.30;92.50
51559;DHT22;61650;48.882;2.092;2022-10-20T02:30:10;16.50;92.00
51559;DHT22;61650;48.882;2.092;2022-10-20T02:32:38;16.60;91.00
51559;DHT22;61650;48.882;2.092;2022-10-20T02:35:08;16.70;90.80
51559;DHT22;61650;48.882;2.092;2022-10-20T02:37:35;16.70;90.10
51559;DHT22;61650;48.882;2.092;2022-10-20T02:40:00;16.70;89.90
51559;DHT22;61650;48.882;2.092;2022-10-20T02:42:26;16.80;89.40
51559;DHT22;61650;48.882;2.092;2022-10-20T02:44:51;16.70;90.00
51559;DHT22;61650;48.882;2.092;2022-10-20T02:47:17;16.60;91.30
51559;DHT22;61650;48.882;2.092;2022-10-20T02:49:45;16.40;92.20
51559;DHT22;61650;48.882;2.092;2022-10-20T02:52:10;16.30;93.30
51559;DHT22;61650;48.882;2.092;2022-10-20T02:54:36;16.30;93.30
51559;DHT22;61650;48.882;2.092;2022-10-20T02:57:02;16.30;92.80
51559;DHT22;61650;48.882;2.092;2022-10-20T02:59:27;16.30;93.30
51559;DHT22;61650;48.882;2.092;2022-10-20T03:01:53;16.20;93.90
51559;DHT22;61650;48.882;2.092;2022-10-20T03:04:18;16.20;93.70
51559;DHT22;61650;48.882;2.092;2022-10-20T03:06:44;16.10;93.80
51559;DHT22;61650;48.882;2.092;2022-10-20T03:09:10;16.20;93.20
51559;DHT22;61650;48.882;2.092;2022-10-20T03:11:35;16.10;93.70
51559;DHT22;61650;48.882;2.092;2022-10-20T03:14:01;16.00;94.40
51559;DHT22;61650;48.882;2.092;2022-10-20T03:16:27;16.00;94.90
51559;DHT22;61650;48.882;2.092;2022-10-20T03:18:52;16.00;94.80
51559;DHT22;61650;48.882;2.092;2022-10-20T03:21:18;15.90;95.70
51559;DHT22;61650;48.882;2.092;2022-10-20T03:23:43;15.90;96.10
51559;DHT22;61650;48.882;2.092;2022-10-20T03:26:10;15.80;96.30
51559;DHT22;61650;48.882;2.092;2022-10-20T03:28:37;15.90;95.90
51559;DHT22;61650;48.882;2.092;2022-10-20T03:31:03;15.80;96.20
51559;DHT22;61650;48.882;2.092;2022-10-20T03:33:29;15.80;96.60
51559;DHT22;61650;48.882;2.092;2022-10-20T03:35:54;15.80;97.00
51559;DHT22;61650;48.882;2.092;2022-10-20T03:38:20;15.80;96.70
51559;DHT22;61650;48.882;2.092;2022-10-20T03:40:45;15.80;96.90
51559;DHT22;61650;48.882;2.092;2022-10-20T03:43:11;15.70;96.80
51559;DHT22;61650;48.882;2.092;2022-10-20T03:45:36;15.70;97.10
51559;DHT22;61650;48.882;2.092;2022-10-20T03:48:02;15.70;97.50
51559;DHT22;61650;48.882;2.092;2022-10-20T03:50:28;15.60;97.70
51559;DHT22;61650;48.882;2.092;2022-10-20T03:52:54;15.60;97.90
51559;DHT22;61650;48.882;2.092;2022-10-20T03:55:19;15.60;98.20
51559;DHT22;61650;48.882;2.092;2022-10-20T03:57:45;15.60;98.40
51559;DHT22;61650;48.882;2.092;2022-10-20T04:00:11;15.60;98.70
51559;DHT22;61650;48.882;2.092;2022-10-20T04:02:44;15.60;99.00
51559;DHT22;61650;48.882;2.092;2022-10-20T04:05:16;15.60;99.30
51559;DHT22;61650;48.882;2.092;2022-10-20T04:07:43;15.50;99.50
51559;DHT22;61650;48.882;2.092;2022-10-20T04:10:10;15.50;99.70
51559;DHT22;61650;48.882;2.092;2022-10-20T04:12:36;15.50;99.80
51559;DHT22;61650;48.882;2.092;2022-10-20T04:15:03;15.50;99.90
51559;DHT22;61650;48.882;2.092;2022-10-20T04:17:29;15.50;99.90
51559;DHT22;61650;48.882;2.092;2022-10-20T04:19:55;15.40;99.90
51559;DHT22;61650;48.882;2.092;2022-10-20T04:22:21;15.50;99.90
51559;DHT22;61650;48.882;2.092;2022-10-20T04:24:46;15.50;99.90
51559;DHT22;61650;48.882;2.092;2022-10-20T04:27:12;15.50;99.90
51559;DHT22;61650;48.882;2.092;2022-10-20T04:29:37;15.50;99.90
51559;DHT22;61650;48.882;2.092;2022-10-20T04:32:03;15.40;99.90
51559;DHT22;61650;48.882;2.092;2022-10-20T04:34:29;15.40;99.90
51559;DHT22;61650;48.882;2.092;2022-10-20T04:36:54;15.40;99.90
51559;DHT22;61650;48.882;2.092;2022-10-20T04:39:20;15.40;99.90
51559;DHT22;61650;48.882;2.092;2022-10-20T04:41:45;15.40;99.90
51559;DHT22;61650;48.882;2.092;2022-10-20T04:44:11;15.40;99.90
51559;DHT22;61650;48.882;2.092;2022-10-20T04:46:37;15.40;99.90
51559;DHT22;61650;48.882;2.092;2022-10-20T04:49:03;15.40;99.90
51559;DHT22;61650;48.882;2.092;2022-10-20T04:51:29;15.30;99.90
51559;DHT22;61650;48.882;2.092;2022-10-20T04:53:54;15.30;99.90
51559;DHT22;61650;48.882;2.092;2022-10-20T04:56:20;15.30;99.90
51559;DHT22;61650;48.882;2.092;2022-10-20T04:58:50;15.30;99.90
51559;DHT22;61650;48.882;2.092;2022-10-20T05:01:17;15.30;99.90
51559;DHT22;61650;48.882;2.092;2022-10-20T05:03:43;15.30;99.90
51559;DHT22;61650;48.882;2.092;2022-10-20T05:06:14;15.30;99.90
51559;DHT22;61650;48.882;2.092;2022-10-20T05:08:42;15.30;99.90
51559;DHT22;61650;48.882;2.092;2022-10-20T05:11:08;15.30;99.90
51559;DHT22;61650;48.882;2.092;2022-10-20T05:13:35;15.30;99.90
51559;DHT22;61650;48.882;2.092;2022-10-20T05:16:00;15.30;99.90
51559;DHT22;61650;48.882;2.092;2022-10-20T05:18:26;15.30;99.90
51559;DHT22;61650;48.882;2.092;2022-10-20T05:20:52;15.30;99.90
51559;DHT22;61650;48.882;2.092;2022-10-20T05:23:18;15.30;99.90
51559;DHT22;61650;48.882;2.092;2022-10-20T05:25:43;15.20;99.90
51559;DHT22;61650;48.882;2.092;2022-10-20T05:28:09;15.20;99.90
51559;DHT22;61650;48.882;2.092;2022-10-20T05:30:35;15.20;99.90
51559;DHT22;61650;48.882;2.092;2022-10-20T05:33:00;15.20;99.90
51559;DHT22;61650;48.882;2.092;2022-10-20T05:35:27;15.20;99.90
51559;DHT22;61650;48.882;2.092;2022-10-20T05:37:53;15.10;99.90
51559;DHT22;61650;48.882;2.092;2022-10-20T05:40:18;15.20;99.90
51559;DHT22;61650;48.882;2.092;2022-10-20T05:42:44;15.10;99.90
51559;DHT22;61650;48.882;2.092;2022-10-20T05:45:10;15.10;99.90
51559;DHT22;61650;48.882;2.092;2022-10-20T05:47:35;15.10;99.90
51559;DHT22;61650;48.882;2.092;2022-10-20T05:50:01;15.10;99.90
51559;DHT22;61650;48.882;2.092;2022-10-20T05:52:26;15.00;99.90
51559;DHT22;61650;48.882;2.092;2022-10-20T05:54:52;15.00;99.90
51559;DHT22;61650;48.882;2.092;2022-10-20T05:57:18;15.00;99.90
51559;DHT22;61650;48.882;2.092;2022-10-20T05:59:43;15.00;99.90
51559;DHT22;61650;48.882;2.092;2022-10-20T06:02:10;15.00;99.90
51559;DHT22;61650;48.882;2.092;2022-10-20T06:04:36;15.00;99.90
51559;DHT22;61650;48.882;2.092;2022-10-20T06:07:02;15.00;99.90
51559;DHT22;61650;48.882;2.092;2022-10-20T06:09:30;15.10;99.90
51559;DHT22;61650;48.882;2.092;2022-10-20T06:11:57;15.10;99.90
51559;DHT22;61650;48.882;2.092;2022-10-20T06:14:22;15.00;99.90
51559;DHT22;61650;48.882;2.092;2022-10-20T06:16:51;15.00;99.90
51559;DHT22;61650;48.882;2.092;2022-10-20T06:19:17;15.10;99.90
51559;DHT22;61650;48.882;2.092;2022-10-20T06:21:43;15.10;99.90
51559;DHT22;61650;48.882;2.092;2022-10-20T06:24:09;15.10;99.90
51559;DHT22;61650;48.882;2.092;2022-10-20T06:26:36;15.10;99.90
51559;DHT22;61650;48.882;2.092;2022-10-20T06:29:04;15.00;99.90
51559;DHT22;61650;48.882;2.092;2022-10-20T06:31:32;15.00;99.90
51559;DHT22;61650;48.882;2.092;2022-10-20T06:33:58;15.00;99.90
51559;DHT22;61650;48.882;2.092;2022-10-20T06:36:25;14.90;99.90
51559;DHT22;61650;48.882;2.092;2022-10-20T06:38:56;14.90;99.90
51559;DHT22;61650;48.882;2.092;2022-10-20T06:41:22;14.90;99.90
51559;DHT22;61650;48.882;2.092;2022-10-20T06:43:48;14.90;99.90
51559;DHT22;61650;48.882;2.092;2022-10-20T06:46:16;14.90;99.90
51559;DHT22;61650;48.882;2.092;2022-10-20T06:48:43;14.80;99.90
51559;DHT22;61650;48.882;2.092;2022-10-20T06:51:14;14.80;99.90
51559;DHT22;61650;48.882;2.092;2022-10-20T06:53:41;14.80;99.90
51559;DHT22;61650;48.882;2.092;2022-10-20T06:56:10;14.70;99.90
51559;DHT22;61650;48.882;2.092;2022-10-20T06:58:38;14.80;99.90
51559;DHT22;61650;48.882;2.092;2022-10-20T07:01:16;14.80;99.90
51559;DHT22;61650;48.882;2.092;2022-10-20T07:03:43;14.70;99.90
51559;DHT22;61650;48.882;2.092;2022-10-20T07:06:13;14.70;99.90
51559;DHT22;61650;48.882;2.092;2022-10-20T07:08:39;14.70;99.90
51559;DHT22;61650;48.882;2.092;2022-10-20T07:11:11;14.70;99.90
51559;DHT22;61650;48.882;2.092;2022-10-20T07:13:38;14.70;99.90
51559;DHT22;61650;48.882;2.092;2022-10-20T07:16:05;14.60;99.90
51559;DHT22;61650;48.882;2.092;2022-10-20T07:18:32;14.60;99.90
51559;DHT22;61650;48.882;2.092;2022-10-20T07:21:00;14.50;99.90
51559;DHT22;61650;48.882;2.092;2022-10-20T07:23:27;14.50;99.90
51559;DHT22;61650;48.882;2.092;2022-10-20T07:26:03;14.50;99.90
51559;DHT22;61650;48.882;2.092;2022-10-20T07:28:30;14.50;99.90
51559;DHT22;61650;48.882;2.092;2022-10-20T07:30:55;14.50;99.90
51559;DHT22;61650;48.882;2.092;2022-10-20T07:33:21;14.50;99.90
51559;DHT22;61650;48.882;2.092;2022-10-20T07:35:47;14.50;99.90
51559;DHT22;61650;48.882;2.092;2022-10-20T07:38:13;14.60;99.90
51559;DHT22;61650;48.882;2.092;2022-10-20T07:40:38;14.60;99.90
51559;DHT22;61650;48.882;2.092;2022-10-20T07:43:04;14.60;99.90
51559;DHT22;61650;48.882;2.092;2022-10-20T07:45:30;14.60;99.90
51559;DHT22;61650;48.882;2.092;2022-10-20T07:47:55;14.50;99.90
51559;DHT22;61650;48.882;2.092;2022-10-20T07:50:21;14.50;99.90
51559;DHT22;61650;48.882;2.092;2022-10-20T07:52:53;14.50;99.90
51559;DHT22;61650;48.882;2.092;2022-10-20T07:55:19;14.50;99.90
51559;DHT22;61650;48.882;2.092;2022-10-20T07:57:45;14.60;99.90
51559;DHT22;61650;48.882;2.092;2022-10-20T08:00:11;14.60;99.90
51559;DHT22;61650;48.882;2.092;2022-10-20T08:02:37;14.60;99.90
51559;DHT22;61650;48.882;2.092;2022-10-20T08:05:05;14.70;99.90
51559;DHT22;61650;48.882;2.092;2022-10-20T08:07:32;14.70;99.90
51559;DHT22;61650;48.882;2.092;2022-10-20T08:09:57;14.70;99.90
51559;DHT22;61650;48.882;2.092;2022-10-20T08:12:23;14.70;99.90
51559;DHT22;61650;48.882;2.092;2022-10-20T08:14:49;14.80;99.90
51559;DHT22;61650;48.882;2.092;2022-10-20T08:17:16;14.90;99.90
51559;DHT22;61650;48.882;2.092;2022-10-20T08:19:42;14.90;99.90
51559;DHT22;61650;48.882;2.092;2022-10-20T08:22:07;14.90;99.90
51559;DHT22;61650;48.882;2.092;2022-10-20T08:24:33;15.10;99.90
51559;DHT22;61650;48.882;2.092;2022-10-20T08:27:00;15.10;99.90
51559;DHT22;61650;48.882;2.092;2022-10-20T08:29:25;15.20;99.90
51559;DHT22;61650;48.882;2.092;2022-10-20T08:31:51;15.20;99.90
51559;DHT22;61650;48.882;2.092;2022-10-20T08:34:16;15.30;99.90
51559;DHT22;61650;48.882;2.092;2022-10-20T08:36:42;15.30;99.90
51559;DHT22;61650;48.882;2.092;2022-10-20T08:39:07;15.30;99.90
51559;DHT22;61650;48.882;2.092;2022-10-20T08:41:44;15.30;99.90
51559;DHT22;61650;48.882;2.092;2022-10-20T08:44:18;15.40;99.90
51559;DHT22;61650;48.882;2.092;2022-10-20T08:46:45;15.40;99.90
51559;DHT22;61650;48.882;2.092;2022-10-20T08:49:20;15.40;99.90
51559;DHT22;61650;48.882;2.092;2022-10-20T08:51:47;15.40;99.90
51559;DHT22;61650;48.882;2.092;2022-10-20T08:54:14;15.40;99.90
51559;DHT22;61650;48.882;2.092;2022-10-20T08:56:40;15.50;99.90
51559;DHT22;61650;48.882;2.092;2022-10-20T08:59:25;15.40;99.90
51559;DHT22;61650;48.882;2.092;2022-10-20T09:01:53;15.40;99.80
51559;DHT22;61650;48.882;2.092;2022-10-20T09:04:22;15.30;99.40
51559;DHT22;61650;48.882;2.092;2022-10-20T09:07:08;15.40;99.30
51559;DHT22;61650;48.882;2.092;2022-10-20T09:09:37;15.40;99.50
51559;DHT22;61650;48.882;2.092;2022-10-20T09:12:05;15.50;99.20
51559;DHT22;61650;48.882;2.092;2022-10-20T09:14:35;15.50;99.10
51559;DHT22;61650;48.882;2.092;2022-10-20T09:17:00;15.50;98.90
51559;DHT22;61650;48.882;2.092;2022-10-20T09:19:27;15.50;98.70
51559;DHT22;61650;48.882;2.092;2022-10-20T09:22:00;15.60;98.90
51559;DHT22;61650;48.882;2.092;2022-10-20T09:24:27;15.60;97.90
51559;DHT22;61650;48.882;2.092;2022-10-20T09:26:55;15.70;97.10
51559;DHT22;61650;48.882;2.092;2022-10-20T09:29:22;15.70;97.00
51559;DHT22;61650;48.882;2.092;2022-10-20T09:31:58;15.70;97.20
51559;DHT22;61650;48.882;2.092;2022-10-20T09:34:33;15.70;97.20
51559;DHT22;61650;48.882;2.092;2022-10-20T09:39:57;15.80;96.70
51559;DHT22;61650;48.882;2.092;2022-10-20T09:42:33;15.80;95.60
51559;DHT22;61650;48.882;2.092;2022-10-20T09:45:48;15.90;94.50
51559;DHT22;61650;48.882;2.092;2022-10-20T09:48:04;16.10;92.90
51559;DHT22;61650;48.882;2.092;2022-10-20T09:50:35;16.10;94.00
51559;DHT22;61650;48.882;2.092;2022-10-20T09:53:04;16.30;92.40
51559;DHT22;61650;48.882;2.092;2022-10-20T09:55:35;16.10;94.20
51559;DHT22;61650;48.882;2.092;2022-10-20T09:58:04;16.00;94.90
51559;DHT22;61650;48.882;2.092;2022-10-20T10:00:32;16.00;95.80
51559;DHT22;61650;48.882;2.092;2022-10-20T10:03:19;16.10;93.30
51559;DHT22;61650;48.882;2.092;2022-10-20T10:05:59;16.10;94.40
51559;DHT22;61650;48.882;2.092;2022-10-20T10:08:40;16.10;94.70
51559;DHT22;61650;48.882;2.092;2022-10-20T10:11:19;16.20;94.70
51559;DHT22;61650;48.882;2.092;2022-10-20T10:13:47;16.20;92.80
51559;DHT22;61650;48.882;2.092;2022-10-20T10:16:16;16.20;93.00
51559;DHT22;61650;48.882;2.092;2022-10-20T10:18:44;16.30;91.50
51559;DHT22;61650;48.882;2.092;2022-10-20T10:21:14;16.30;92.70
51559;DHT22;61650;48.882;2.092;2022-10-20T10:24:00;16.30;93.90
51559;DHT22;61650;48.882;2.092;2022-10-20T10:27:05;16.40;93.20
51559;DHT22;61650;48.882;2.092;2022-10-20T10:29:34;16.40;92.60
51559;DHT22;61650;48.882;2.092;2022-10-20T10:37:32;16.60;90.30
51559;DHT22;61650;48.882;2.092;2022-10-20T10:39:58;16.80;88.90
51559;DHT22;61650;48.882;2.092;2022-10-20T10:45:41;16.80;90.40
51559;DHT22;61650;48.882;2.092;2022-10-20T10:48:33;16.90;89.20
51559;DHT22;61650;48.882;2.092;2022-10-20T10:56:50;17.10;91.40
51559;DHT22;61650;48.882;2.092;2022-10-20T10:59:28;17.20;91.30
51559;DHT22;61650;48.882;2.092;2022-10-20T11:05:12;17.50;87.30
51559;DHT22;61650;48.882;2.092;2022-10-20T11:08:13;17.60;89.40
51559;DHT22;61650;48.882;2.092;2022-10-20T11:11:01;17.50;85.40
51559;DHT22;61650;48.882;2.092;2022-10-20T11:13:49;17.50;89.40
51559;DHT22;61650;48.882;2.092;2022-10-20T11:16:23;17.50;88.60
51559;DHT22;61650;48.882;2.092;2022-10-20T11:19:06;17.70;86.50
51559;DHT22;61650;48.882;2.092;2022-10-20T11:24:51;18.00;86.80
51559;DHT22;61650;48.882;2.092;2022-10-20T11:27:25;17.90;85.30
51559;DHT22;61650;48.882;2.092;2022-10-20T11:29:57;17.80;88.30
51559;DHT22;61650;48.882;2.092;2022-10-20T11:40:37;18.30;85.10
51559;DHT22;61650;48.882;2.092;2022-10-20T11:43:16;18.30;86.70
51559;DHT22;61650;48.882;2.092;2022-10-20T11:45:53;18.20;85.00
51559;DHT22;61650;48.882;2.092;2022-10-20T11:56:31;18.50;84.30
51559;DHT22;61650;48.882;2.092;2022-10-20T11:59:06;18.40;86.40
51559;DHT22;61650;48.882;2.092;2022-10-20T12:07:45;18.30;85.20
51559;DHT22;61650;48.882;2.092;2022-10-20T12:16:05;18.40;85.40
51559;DHT22;61650;48.882;2.092;2022-10-20T12:18:35;18.40;84.30
51559;DHT22;61650;48.882;2.092;2022-10-20T12:21:03;18.50;80.60
51559;DHT22;61650;48.882;2.092;2022-10-20T12:28:58;18.90;80.40
51559;DHT22;61650;48.882;2.092;2022-10-20T12:31:27;18.90;81.70
51559;DHT22;61650;48.882;2.092;2022-10-20T12:34:22;18.90;82.30
51559;DHT22;61650;48.882;2.092;2022-10-20T12:36:48;18.80;79.40
51559;DHT22;61650;48.882;2.092;2022-10-20T12:39:18;18.80;82.50
51559;DHT22;61650;48.882;2.092;2022-10-20T12:41:57;18.90;80.30
51559;DHT22;61650;48.882;2.092;2022-10-20T12:44:23;19.00;78.70
51559;DHT22;61650;48.882;2.092;2022-10-20T12:46:53;19.20;81.00
51559;DHT22;61650;48.882;2.092;2022-10-20T12:49:27;19.20;77.90
51559;DHT22;61650;48.882;2.092;2022-10-20T12:51:55;19.20;83.30
51559;DHT22;61650;48.882;2.092;2022-10-20T12:57:02;19.20;82.50
51559;DHT22;61650;48.882;2.092;2022-10-20T13:05:00;19.30;77.40
51559;DHT22;61650;48.882;2.092;2022-10-20T13:20:47;19.60;80.70
51559;DHT22;61650;48.882;2.092;2022-10-20T13:23:36;19.60;80.80
51559;DHT22;61650;48.882;2.092;2022-10-20T13:26:37;19.70;78.00
51559;DHT22;61650;48.882;2.092;2022-10-20T13:29:16;20.00;75.70
51559;DHT22;61650;48.882;2.092;2022-10-20T13:40:24;20.00;78.20
51559;DHT22;61650;48.882;2.092;2022-10-20T13:45:38;20.10;75.60
51559;DHT22;61650;48.882;2.092;2022-10-20T13:51:14;20.60;74.00
51559;DHT22;61650;48.882;2.092;2022-10-20T13:53:43;20.50;74.80
51559;DHT22;61650;48.882;2.092;2022-10-20T13:56:28;20.70;77.90
51559;DHT22;61650;48.882;2.092;2022-10-20T13:59:31;21.20;77.40
51559;DHT22;61650;48.882;2.092;2022-10-20T14:04:35;22.20;70.80
51559;DHT22;61650;48.882;2.092;2022-10-20T14:07:05;22.90;68.40
51559;DHT22;61650;48.882;2.092;2022-10-20T14:12:21;27.10;58.20
51559;DHT22;61650;48.882;2.092;2022-10-20T14:14:47;27.80;52.20
51559;DHT22;61650;48.882;2.092;2022-10-20T14:17:21;27.80;55.80
51559;DHT22;61650;48.882;2.092;2022-10-20T14:19:47;27.40;58.40
51559;DHT22;61650;48.882;2.092;2022-10-20T14:22:21;26.70;62.90
51559;DHT22;61650;48.882;2.092;2022-10-20T14:24:55;25.40;61.50
51559;DHT22;61650;48.882;2.092;2022-10-20T14:27:24;24.10;67.30
51559;DHT22;61650;48.882;2.092;2022-10-20T14:29:51;22.70;71.50
51559;DHT22;61650;48.882;2.092;2022-10-20T14:32:21;21.90;67.70
51559;DHT22;61650;48.882;2.092;2022-10-20T14:34:55;21.50;76.40
51559;DHT22;61650;48.882;2.092;2022-10-20T14:37:31;21.20;74.90
51559;DHT22;61650;48.882;2.092;2022-10-20T14:40:04;21.00;72.90
51559;DHT22;61650;48.882;2.092;2022-10-20T14:42:31;20.90;73.80
51559;DHT22;61650;48.882;2.092;2022-10-20T14:44:58;21.10;75.50
51559;DHT22;61650;48.882;2.092;2022-10-20T14:47:31;20.80;76.90
51559;DHT22;61650;48.882;2.092;2022-10-20T14:49:58;20.60;78.30
51559;DHT22;61650;48.882;2.092;2022-10-20T14:52:29;20.40;78.50
51559;DHT22;61650;48.882;2.092;2022-10-20T14:54:55;20.30;80.30
51559;DHT22;61650;48.882;2.092;2022-10-20T14:57:39;20.30;79.90
51559;DHT22;61650;48.882;2.092;2022-10-20T15:02:51;20.20;78.40
51559;DHT22;61650;48.882;2.092;2022-10-20T15:05:31;20.20;80.10
51559;DHT22;61650;48.882;2.092;2022-10-20T15:07:58;20.10;80.80
51559;DHT22;61650;48.882;2.092;2022-10-20T15:10:31;20.00;80.50
51559;DHT22;61650;48.882;2.092;2022-10-20T15:12:56;20.00;80.60
51559;DHT22;61650;48.882;2.092;2022-10-20T15:15:27;20.00;80.80
51559;DHT22;61650;48.882;2.092;2022-10-20T15:25:41;20.30;78.80
51559;DHT22;61650;48.882;2.092;2022-10-20T15:28:33;20.40;80.00
51559;DHT22;61650;48.882;2.092;2022-10-20T15:31:01;20.40;76.20
51559;DHT22;61650;48.882;2.092;2022-10-20T15:33:27;20.40;79.60
51559;DHT22;61650;48.882;2.092;2022-10-20T15:35:53;20.30;79.20
51559;DHT22;61650;48.882;2.092;2022-10-20T15:38:22;20.30;78.60
51559;DHT22;61650;48.882;2.092;2022-10-20T15:40:48;20.20;79.50
51559;DHT22;61650;48.882;2.092;2022-10-20T15:43:16;20.10;80.60
51559;DHT22;61650;48.882;2.092;2022-10-20T15:45:46;20.00;80.10
51559;DHT22;61650;48.882;2.092;2022-10-20T15:48:13;19.90;80.80
51559;DHT22;61650;48.882;2.092;2022-10-20T15:50:39;19.90;80.80
51559;DHT22;61650;48.882;2.092;2022-10-20T15:53:05;19.80;81.30
51559;DHT22;61650;48.882;2.092;2022-10-20T15:55:37;19.70;80.30
51559;DHT22;61650;48.882;2.092;2022-10-20T15:58:03;19.70;81.60
51559;DHT22;61650;48.882;2.092;2022-10-20T16:00:29;19.60;81.40
51559;DHT22;61650;48.882;2.092;2022-10-20T16:02:54;19.60;81.60
51559;DHT22;61650;48.882;2.092;2022-10-20T16:05:22;19.40;81.90
51559;DHT22;61650;48.882;2.092;2022-10-20T16:07:48;19.40;82.60
51559;DHT22;61650;48.882;2.092;2022-10-20T16:10:15;19.40;81.30
51559;DHT22;61650;48.882;2.092;2022-10-20T16:12:40;19.30;80.20
51559;DHT22;61650;48.882;2.092;2022-10-20T16:15:07;19.30;80.90
51559;DHT22;61650;48.882;2.092;2022-10-20T16:17:34;19.30;81.40
51559;DHT22;61650;48.882;2.092;2022-10-20T16:20:00;19.20;82.40
51559;DHT22;61650;48.882;2.092;2022-10-20T16:22:27;19.10;83.00
51559;DHT22;61650;48.882;2.092;2022-10-20T16:24:52;19.00;83.50
51559;DHT22;61650;48.882;2.092;2022-10-20T16:27:20;18.90;82.70
51559;DHT22;61650;48.882;2.092;2022-10-20T16:29:45;18.90;83.30
51559;DHT22;61650;48.882;2.092;2022-10-20T16:32:11;18.80;83.70
51559;DHT22;61650;48.882;2.092;2022-10-20T16:34:36;18.70;82.70
51559;DHT22;61650;48.882;2.092;2022-10-20T16:37:02;18.80;83.30
51559;DHT22;61650;48.882;2.092;2022-10-20T16:39:28;18.80;84.20
51559;DHT22;61650;48.882;2.092;2022-10-20T16:41:53;18.70;84.50
51559;DHT22;61650;48.882;2.092;2022-10-20T16:44:19;18.70;84.60
51559;DHT22;61650;48.882;2.092;2022-10-20T16:46:45;18.70;84.10
51559;DHT22;61650;48.882;2.092;2022-10-20T16:49:10;18.70;84.50
51559;DHT22;61650;48.882;2.092;2022-10-20T16:51:36;18.70;84.00
51559;DHT22;61650;48.882;2.092;2022-10-20T16:54:02;18.70;83.40
51559;DHT22;61650;48.882;2.092;2022-10-20T16:56:27;18.70;83.80
51559;DHT22;61650;48.882;2.092;2022-10-20T16:58:53;18.80;83.80
51559;DHT22;61650;48.882;2.092;2022-10-20T17:01:21;18.70;83.80
51559;DHT22;61650;48.882;2.092;2022-10-20T17:03:49;18.70;84.30
51559;DHT22;61650;48.882;2.092;2022-10-20T17:06:16;18.60;84.30
51559;DHT22;61650;48.882;2.092;2022-10-20T17:08:43;18.50;84.90
51559;DHT22;61650;48.882;2.092;2022-10-20T17:11:21;18.50;85.10
51559;DHT22;61650;48.882;2.092;2022-10-20T17:13:46;18.40;84.10
51559;DHT22;61650;48.882;2.092;2022-10-20T17:16:24;18.60;84.50
51559;DHT22;61650;48.882;2.092;2022-10-20T17:18:54;18.60;84.70
51559;DHT22;61650;48.882;2.092;2022-10-20T17:21:20;18.50;84.10
51559;DHT22;61650;48.882;2.092;2022-10-20T17:23:52;18.50;83.10
51559;DHT22;61650;48.882;2.092;2022-10-20T17:26:20;18.40;81.50
51559;DHT22;61650;48.882;2.092;2022-10-20T17:28:47;18.50;79.30
51559;DHT22;61650;48.882;2.092;2022-10-20T17:31:15;18.40;80.20
51559;DHT22;61650;48.882;2.092;2022-10-20T17:33:42;18.30;81.20
51559;DHT22;61650;48.882;2.092;2022-10-20T17:36:08;18.30;78.20
51559;DHT22;61650;48.882;2.092;2022-10-20T17:38:35;18.30;79.50
51559;DHT22;61650;48.882;2.092;2022-10-20T17:41:12;18.10;79.70
51559;DHT22;61650;48.882;2.092;2022-10-20T17:43:39;17.80;81.00
51559;DHT22;61650;48.882;2.092;2022-10-20T17:46:11;17.20;85.50
51559;DHT22;61650;48.882;2.092;2022-10-20T17:48:37;16.70;86.60